createdAt,value
2022-09-10T00:01:15.817Z,22.27
2022-09-10T00:03:43.703Z,22.41
2022-09-10T00:06:11.031Z,22.58
2022-09-10T00:08:39.297Z,22.46
2022-09-10T00:11:08.583Z,22.56
2022-09-10T00:13:37.301Z,22.71
2022-09-10T00:16:05.459Z,22.56
2022-09-10T00:18:34.752Z,22.22
2022-09-10T00:21:04.905Z,22.16
2022-09-10T00:23:32.181Z,22.20
2022-09-10T00:25:59.987Z,22.15
2022-09-10T00:28:27.482Z,22.24
2022-09-10T00:30:54.968Z,22.24
2022-09-10T00:33:23.179Z,22.15
2022-09-10T00:35:50.654Z,22.25
2022-09-10T00:38:18.562Z,22.29
2022-09-10T00:40:46.365Z,22.23
2022-09-10T00:43:14.665Z,22.16
2022-09-10T00:45:44.021Z,22.13
2022-09-10T00:48:14.352Z,22.14
2022-09-10T00:50:42.369Z,22.24
2022-09-10T00:53:10.698Z,22.24
2022-09-10T00:55:38.846Z,21.94
2022-09-10T00:58:06.998Z,22.00
2022-09-10T01:00:34.380Z,22.19
2022-09-10T01:03:01.938Z,22.13
2022-09-10T01:05:29.394Z,22.21
2022-09-10T01:07:58.085Z,22.07
2022-09-10T01:10:28.033Z,22.17
2022-09-10T01:13:02.103Z,22.07
2022-09-10T01:15:41.028Z,22.18
2022-09-10T01:18:08.231Z,22.22
2022-09-10T01:20:57.533Z,22.17
2022-09-10T01:23:43.326Z,22.17
2022-09-10T01:26:20.236Z,22.15
2022-09-10T01:29:01.066Z,21.98
2022-09-10T01:31:58.550Z,22.06
2022-09-10T01:34:32.919Z,21.91
2022-09-10T01:37:04.036Z,21.99
2022-09-10T01:39:31.291Z,21.89
2022-09-10T01:41:59.313Z,21.91
2022-09-10T01:44:40.378Z,21.83
2022-09-10T01:47:14.027Z,21.87
2022-09-10T01:49:47.305Z,21.77
2022-09-10T01:52:25.526Z,21.75
2022-09-10T01:55:08.716Z,21.62
2022-09-10T01:57:44.494Z,21.35
2022-09-10T02:00:14.026Z,21.62
2022-09-10T02:02:46.017Z,21.62
2022-09-10T02:05:13.967Z,21.45
2022-09-10T02:07:42.484Z,21.38
2022-09-10T02:10:12.383Z,21.16
2022-09-10T02:12:40.330Z,21.09
2022-09-10T02:15:12.598Z,21.17
2022-09-10T02:17:42.910Z,21.09
2022-09-10T02:20:11.598Z,21.10
2022-09-10T02:22:39.887Z,21.10
2022-09-10T02:25:07.405Z,21.15
2022-09-10T02:27:35.013Z,21.10
2022-09-10T02:30:02.633Z,20.89
2022-09-10T02:32:30.067Z,21.12
2022-09-10T02:34:57.243Z,20.74
2022-09-10T02:37:27.633Z,20.64
2022-09-10T02:39:55.465Z,20.75
2022-09-10T02:42:25.488Z,20.95
2022-09-10T02:44:53.574Z,21.11
2022-09-10T02:47:20.850Z,20.88
2022-09-10T02:49:48.290Z,20.73
2022-09-10T02:52:15.935Z,20.25
2022-09-10T02:54:43.129Z,20.58
2022-09-10T02:57:12.256Z,20.29
2022-09-10T02:59:39.919Z,20.29
2022-09-10T03:02:07.274Z,20.15
2022-09-10T03:04:35.728Z,20.25
2022-09-10T03:07:03.626Z,20.37
2022-09-10T03:09:31.002Z,20.43
2022-09-10T03:11:58.388Z,20.43
2022-09-10T03:14:25.921Z,20.38
2022-09-10T03:16:53.213Z,20.35
2022-09-10T03:19:21.586Z,20.48
2022-09-10T03:21:49.244Z,20.04
2022-09-10T03:24:16.449Z,20.17
2022-09-10T03:26:45.149Z,20.36
2022-09-10T03:29:15.575Z,20.29
2022-09-10T03:31:44.937Z,20.40
2022-09-10T03:34:12.923Z,20.41
2022-09-10T03:36:41.135Z,20.28
2022-09-10T03:39:09.702Z,20.50
2022-09-10T03:41:37.514Z,20.38
2022-09-10T03:44:05.612Z,20.37
2022-09-10T03:46:32.801Z,20.50
2022-09-10T03:49:02.504Z,20.18
2022-09-10T03:51:31.140Z,20.31
2022-09-10T03:54:02.583Z,20.39
2022-09-10T03:56:30.524Z,20.28
2022-09-10T03:58:57.917Z,20.33
2022-09-10T04:01:26.791Z,20.46
2022-09-10T04:03:55.510Z,20.39
2022-09-10T04:06:24.685Z,20.36
2022-09-10T04:08:54.756Z,19.98
2022-09-10T04:11:27.493Z,20.05
2022-09-10T04:13:55.749Z,20.25
2022-09-10T04:16:23.719Z,20.34
2022-09-10T04:18:51.147Z,20.09
2022-09-10T04:21:18.870Z,20.33
2022-09-10T04:23:47.729Z,20.40
2022-09-10T04:26:15.502Z,20.41
2022-09-10T04:28:43.422Z,19.98
2022-09-10T04:31:11.146Z,20.32
2022-09-10T04:33:39.085Z,20.37
2022-09-10T04:36:06.692Z,20.28
2022-09-10T04:38:40.150Z,20.22
2022-09-10T04:41:08.167Z,20.36
2022-09-10T04:43:36.664Z,20.20
2022-09-10T04:46:04.016Z,20.26
2022-09-10T04:48:32.438Z,19.98
2022-09-10T04:51:15.636Z,20.13
2022-09-10T04:53:43.809Z,20.13
2022-09-10T04:56:12.123Z,19.94
2022-09-10T04:58:41.244Z,19.98
2022-09-10T05:01:08.923Z,20.07
2022-09-10T05:03:37.130Z,20.09
2022-09-10T05:06:06.293Z,20.06
2022-09-10T05:08:33.698Z,20.33
2022-09-10T05:11:02.949Z,20.20
2022-09-10T05:13:31.697Z,20.14
2022-09-10T05:15:59.370Z,20.18
2022-09-10T05:18:27.312Z,20.03
2022-09-10T05:20:54.800Z,20.30
2022-09-10T05:23:22.019Z,20.59
2022-09-10T05:25:50.234Z,20.36
2022-09-10T05:28:18.263Z,20.06
2022-09-10T05:30:49.459Z,20.20
2022-09-10T05:33:20.311Z,20.32
2022-09-10T05:35:53.680Z,20.46
2022-09-10T05:38:21.322Z,20.30
2022-09-10T05:40:49.026Z,20.16
2022-09-10T05:43:16.768Z,20.29
2022-09-10T05:45:44.933Z,20.50
2022-09-10T05:48:13.131Z,20.54
2022-09-10T05:50:40.848Z,20.79
2022-09-10T05:53:09.843Z,20.53
2022-09-10T05:55:37.932Z,20.47
2022-09-10T05:58:06.422Z,20.53
2022-09-10T06:00:36.593Z,20.95
2022-09-10T06:03:05.560Z,20.71
2022-09-10T06:09:24.569Z,20.91
2022-09-10T06:11:53.375Z,20.92
2022-09-10T06:14:21.000Z,20.99
2022-09-10T06:16:50.017Z,21.12
2022-09-10T06:19:17.886Z,21.09
2022-09-10T06:21:46.844Z,20.80
2022-09-10T06:24:14.483Z,20.71
2022-09-10T06:26:42.408Z,20.89
2022-09-10T06:29:11.730Z,21.05
2022-09-10T06:31:39.324Z,20.94
2022-09-10T06:34:07.509Z,20.87
2022-09-10T06:36:35.229Z,20.90
2022-09-10T06:39:03.571Z,21.04
2022-09-10T06:41:31.834Z,20.97
2022-09-10T06:44:00.416Z,20.90
2022-09-10T06:49:15.940Z,21.13
2022-09-10T06:51:44.297Z,20.73
2022-09-10T06:54:14.273Z,21.07
2022-09-10T06:56:42.858Z,21.14
2022-09-10T06:59:10.949Z,20.77
2022-09-10T07:01:39.036Z,21.11
2022-09-10T07:04:06.944Z,21.12
2022-09-10T07:06:35.695Z,21.03
2022-09-10T07:09:04.409Z,21.06
2022-09-10T07:11:33.375Z,21.05
2022-09-10T07:14:01.590Z,21.01
2022-09-10T07:16:29.604Z,20.95
2022-09-10T07:18:58.602Z,20.82
2022-09-10T07:21:28.113Z,21.06
2022-09-10T07:23:58.322Z,21.04
2022-09-10T07:26:27.198Z,20.64
2022-09-10T07:28:55.395Z,20.72
2022-09-10T07:31:24.243Z,20.82
2022-09-10T07:33:52.883Z,20.68
2022-09-10T07:36:20.496Z,20.78
2022-09-10T07:38:51.302Z,20.76
2022-09-10T07:41:21.371Z,20.97
2022-09-10T07:43:52.797Z,20.75
2022-09-10T07:46:21.213Z,20.83
2022-09-10T07:48:53.230Z,20.89
2022-09-10T07:51:21.669Z,20.95
2022-09-10T07:53:55.965Z,21.01
2022-09-10T07:56:26.148Z,21.00
2022-09-10T07:58:54.024Z,21.07
2022-09-10T08:01:21.659Z,21.08
2022-09-10T08:03:51.432Z,21.42
2022-09-10T08:06:19.531Z,21.34
2022-09-10T08:08:48.331Z,21.71
2022-09-10T08:11:17.662Z,21.89
2022-09-10T08:13:46.718Z,21.72
2022-09-10T08:16:16.254Z,21.89
2022-09-10T08:18:45.080Z,21.80
2022-09-10T08:21:13.794Z,22.02
2022-09-10T08:23:41.270Z,22.07
2022-09-10T08:26:08.958Z,22.29
2022-09-10T08:28:36.769Z,22.21
2022-09-10T08:31:07.806Z,22.38
2022-09-10T08:33:41.978Z,22.43
2022-09-10T08:36:10.601Z,22.36
2022-09-10T08:38:40.385Z,22.64
2022-09-10T08:41:21.994Z,22.33
2022-09-10T08:43:52.930Z,22.64
2022-09-10T08:46:25.036Z,22.37
2022-09-10T08:49:05.118Z,22.62
2022-09-10T08:51:34.844Z,22.18
2022-09-10T08:54:05.463Z,22.12
2022-09-10T08:56:32.853Z,22.29
2022-09-10T08:59:03.221Z,22.12
2022-09-10T09:01:51.629Z,22.37
2022-09-10T09:04:35.109Z,22.07
2022-09-10T09:07:04.459Z,22.14
2022-09-10T09:09:32.067Z,21.87
2022-09-10T09:12:03.733Z,22.00
2022-09-10T09:14:51.898Z,22.12
2022-09-10T09:17:23.021Z,22.49
2022-09-10T09:19:55.528Z,22.67
2022-09-10T09:22:40.700Z,22.60
2022-09-10T09:25:23.771Z,22.69
2022-09-10T09:27:52.625Z,22.49
2022-09-10T09:30:32.053Z,22.82
2022-09-10T09:33:03.514Z,23.06
2022-09-10T09:35:32.522Z,23.23
2022-09-10T09:38:03.918Z,23.39
2022-09-10T09:40:45.164Z,23.47
2022-09-10T09:43:12.621Z,23.79
2022-09-10T09:45:44.091Z,23.97
2022-09-10T09:48:13.300Z,24.20
2022-09-10T09:50:45.965Z,24.50
2022-09-10T09:53:25.421Z,24.80
2022-09-10T09:55:54.633Z,25.01
2022-09-10T09:58:21.901Z,25.32
2022-09-10T10:00:49.695Z,25.62
2022-09-10T10:03:27.041Z,25.92
2022-09-10T10:06:06.035Z,26.32
2022-09-10T10:08:34.274Z,26.07
2022-09-10T10:11:01.968Z,26.25
2022-09-10T10:13:39.200Z,26.12
2022-09-10T10:16:15.159Z,25.95
2022-09-10T10:18:42.819Z,25.87
2022-09-10T10:21:10.430Z,26.23
2022-09-10T10:23:38.160Z,26.13
2022-09-10T10:26:24.069Z,26.08
2022-09-10T10:28:52.515Z,26.16
2022-09-10T10:31:20.109Z,26.36
2022-09-10T10:34:01.072Z,26.42
2022-09-10T10:36:36.316Z,26.28
2022-09-10T10:39:03.560Z,26.62
2022-09-10T10:41:34.242Z,27.04
2022-09-10T10:44:17.182Z,27.25
2022-09-10T10:46:54.001Z,27.05
2022-09-10T10:49:25.977Z,27.13
2022-09-10T10:52:00.236Z,27.35
2022-09-10T10:54:46.506Z,27.38
2022-09-10T10:57:17.114Z,27.16
2022-09-10T10:59:48.138Z,27.57
2022-09-10T11:02:15.633Z,27.57
2022-09-10T11:04:50.465Z,27.61
2022-09-10T11:07:32.887Z,27.90
2022-09-10T11:10:01.731Z,28.02
2022-09-10T11:12:34.002Z,27.76
2022-09-10T11:15:19.885Z,28.16
2022-09-10T11:17:55.461Z,28.27
2022-09-10T11:20:33.481Z,28.44
2022-09-10T11:23:01.160Z,28.02
2022-09-10T11:25:29.667Z,28.21
2022-09-10T11:27:59.481Z,27.63
2022-09-10T11:30:26.981Z,27.65
2022-09-10T11:33:01.774Z,27.29
2022-09-10T11:35:29.951Z,26.86
2022-09-10T11:38:01.207Z,27.27
2022-09-10T11:40:28.855Z,27.19
2022-09-10T11:42:56.962Z,26.60
2022-09-10T11:45:43.352Z,26.77
2022-09-10T11:48:11.294Z,27.38
2022-09-10T11:50:41.717Z,27.42
2022-09-10T11:53:11.654Z,27.54
2022-09-10T11:55:59.807Z,28.03
2022-09-10T11:58:38.746Z,28.10
2022-09-10T12:01:25.853Z,28.33
2022-09-10T12:03:58.108Z,28.36
2022-09-10T12:06:32.316Z,28.59
2022-09-10T12:08:59.933Z,28.11
2022-09-10T12:11:33.572Z,28.26
2022-09-10T12:14:05.847Z,28.27
2022-09-10T12:16:34.963Z,28.05
2022-09-10T12:19:05.005Z,28.52
2022-09-10T12:21:34.348Z,28.42
2022-09-10T12:24:02.341Z,28.74
2022-09-10T12:26:30.054Z,28.26
2022-09-10T12:28:59.302Z,28.28
2022-09-10T12:31:27.770Z,28.36
2022-09-10T12:33:57.720Z,28.61
2022-09-10T12:36:27.899Z,28.50
2022-09-10T12:39:16.384Z,28.13
2022-09-10T12:41:43.609Z,28.03
2022-09-10T12:44:28.287Z,28.28
2022-09-10T12:47:18.852Z,27.61
2022-09-10T12:49:46.923Z,27.70
2022-09-10T12:52:15.413Z,27.30
2022-09-10T12:54:52.624Z,27.31
2022-09-10T12:57:26.325Z,27.38
2022-09-10T13:00:13.094Z,27.71
2022-09-10T13:02:51.613Z,28.04
2022-09-10T13:05:21.738Z,27.73
2022-09-10T13:07:55.943Z,27.66
2022-09-10T13:10:24.313Z,27.95
2022-09-10T13:12:55.192Z,27.83
2022-09-10T13:15:27.465Z,27.49
2022-09-10T13:17:55.141Z,27.28
2022-09-10T13:20:22.432Z,26.90
2022-09-10T13:22:54.548Z,26.88
2022-09-10T13:25:36.637Z,26.87
2022-09-10T13:28:18.069Z,27.26
2022-09-10T13:30:45.821Z,27.46
2022-09-10T13:33:17.697Z,27.10
2022-09-10T13:36:06.395Z,27.59
2022-09-10T13:38:36.964Z,27.84
2022-09-10T13:41:04.592Z,27.67
2022-09-10T13:43:44.791Z,27.91
2022-09-10T13:46:12.939Z,27.84
2022-09-10T13:48:49.455Z,27.82
2022-09-10T13:51:20.721Z,27.30
2022-09-10T13:53:49.190Z,27.21
2022-09-10T13:56:19.954Z,26.99
2022-09-10T13:58:48.564Z,27.13
2022-09-10T14:01:15.990Z,26.97
2022-09-10T14:03:45.425Z,26.89
2022-09-10T14:06:19.337Z,27.04
2022-09-10T14:08:51.118Z,26.75
2022-09-10T14:11:19.778Z,26.56
2022-09-10T14:14:07.669Z,26.48
2022-09-10T14:16:40.966Z,26.44
2022-09-10T14:19:28.955Z,26.33
2022-09-10T14:21:57.752Z,27.23
2022-09-10T14:24:33.653Z,26.97
2022-09-10T14:27:04.840Z,27.01
2022-09-10T14:29:32.691Z,26.93
2022-09-10T14:32:15.823Z,26.81
2022-09-10T14:34:43.370Z,27.07
2022-09-10T14:37:26.077Z,27.03
2022-09-10T14:39:53.752Z,27.03
2022-09-10T14:42:27.145Z,26.69
2022-09-10T14:44:54.850Z,26.42
2022-09-10T14:47:35.808Z,26.30
2022-09-10T14:50:22.785Z,26.52
2022-09-10T14:52:50.197Z,26.45
2022-09-10T14:55:18.304Z,26.45
2022-09-10T14:57:45.947Z,26.75
2022-09-10T15:00:13.845Z,26.61
2022-09-10T15:02:41.601Z,26.60
2022-09-10T15:05:16.164Z,26.46
2022-09-10T15:07:44.418Z,26.50
2022-09-10T15:10:12.228Z,26.73
2022-09-10T15:12:39.860Z,26.24
2022-09-10T15:15:16.426Z,26.40
2022-09-10T15:17:44.470Z,26.49
2022-09-10T15:20:13.383Z,26.38
2022-09-10T15:22:40.725Z,26.51
2022-09-10T15:25:10.893Z,26.29
2022-09-10T15:27:39.047Z,26.44
2022-09-10T15:30:06.726Z,26.17
2022-09-10T15:32:33.947Z,26.13
2022-09-10T15:35:01.448Z,26.25
2022-09-10T15:37:28.683Z,26.02
2022-09-10T15:39:58.492Z,26.22
2022-09-10T15:42:26.133Z,25.96
2022-09-10T15:44:53.970Z,25.97
2022-09-10T15:47:21.438Z,25.92
2022-09-10T15:49:48.979Z,25.83
2022-09-10T15:52:16.248Z,25.88
2022-09-10T15:54:43.938Z,25.88
2022-09-10T15:57:11.730Z,25.92
2022-09-10T15:59:39.150Z,26.06
2022-09-10T16:02:06.584Z,26.15
2022-09-10T16:04:36.659Z,25.68
2022-09-10T16:07:05.115Z,25.95
2022-09-10T16:09:32.891Z,25.31
2022-09-10T16:12:00.874Z,25.40
2022-09-10T16:14:28.253Z,25.31
2022-09-10T16:16:56.839Z,25.65
2022-09-10T16:19:24.477Z,25.35
2022-09-10T16:21:53.064Z,25.52
2022-09-10T16:24:20.408Z,25.31
2022-09-10T16:26:49.245Z,25.21
2022-09-10T16:29:17.391Z,25.11
2022-09-10T16:31:48.345Z,24.92
2022-09-10T16:34:18.541Z,24.91
2022-09-10T16:36:46.219Z,25.11
2022-09-10T16:39:14.079Z,24.98
2022-09-10T16:41:42.691Z,24.76
2022-09-10T16:44:11.187Z,25.04
2022-09-10T16:46:38.768Z,25.04
2022-09-10T16:49:08.189Z,25.10
2022-09-10T16:51:36.659Z,25.07
2022-09-10T16:54:04.614Z,24.86
2022-09-10T16:56:42.352Z,24.87
2022-09-10T16:59:20.388Z,24.69
2022-09-10T17:01:48.656Z,24.90
2022-09-10T17:04:24.643Z,24.78
2022-09-10T17:07:32.824Z,24.91
2022-09-10T17:10:01.031Z,24.69
2022-09-10T17:12:29.530Z,24.77
2022-09-10T17:14:59.750Z,24.50
2022-09-10T17:17:27.341Z,24.38
2022-09-10T17:19:54.876Z,24.03
2022-09-10T17:22:22.761Z,24.02
2022-09-10T17:24:50.527Z,24.20
2022-09-10T17:27:19.211Z,24.24
2022-09-10T17:29:49.795Z,24.18
2022-09-10T17:32:17.102Z,23.77
2022-09-10T17:34:44.982Z,24.10
2022-09-10T17:37:12.356Z,24.14
2022-09-10T17:39:39.600Z,24.07
2022-09-10T17:42:07.226Z,24.08
2022-09-10T17:44:34.454Z,23.92
2022-09-10T17:47:01.630Z,23.83
2022-09-10T17:49:29.118Z,23.80
2022-09-10T17:51:56.765Z,23.67
2022-09-10T17:57:53.637Z,23.58
2022-09-10T18:00:21.167Z,23.34
2022-09-10T18:02:48.791Z,23.58
2022-09-10T18:05:16.109Z,23.82
2022-09-10T18:07:44.675Z,23.43
2022-09-10T18:10:12.243Z,23.40
2022-09-10T18:12:39.458Z,23.31
2022-09-10T18:15:06.857Z,23.06
2022-09-10T18:17:34.494Z,23.10
2022-09-10T18:20:02.774Z,23.05
2022-09-10T18:22:30.118Z,23.05
2022-09-10T18:24:57.762Z,23.04
2022-09-10T18:27:26.416Z,22.82
2022-09-10T18:29:54.083Z,22.79
2022-09-10T18:32:21.926Z,22.77
2022-09-10T18:34:49.186Z,22.88
2022-09-10T18:37:16.414Z,22.83
2022-09-10T18:39:43.987Z,22.83
2022-09-10T18:42:11.452Z,22.59
2022-09-10T18:44:38.958Z,22.75
2022-09-10T18:47:17.870Z,22.65
2022-09-10T18:49:55.149Z,22.66
2022-09-10T18:52:24.841Z,22.28
2022-09-10T18:54:52.115Z,22.10
2022-09-10T18:57:19.352Z,22.26
2022-09-10T18:59:47.701Z,22.13
2022-09-10T19:02:15.593Z,22.24
2022-09-10T19:05:00.740Z,22.14
2022-09-10T19:07:31.046Z,22.06
2022-09-10T19:10:00.447Z,21.62
2022-09-10T19:12:27.714Z,21.55
2022-09-10T19:14:55.334Z,21.39
2022-09-10T19:17:22.911Z,21.60
2022-09-10T19:19:50.423Z,21.45
2022-09-10T19:22:18.411Z,21.51
2022-09-10T19:25:01.036Z,21.59
2022-09-10T19:27:29.467Z,21.41
2022-09-10T19:29:59.490Z,21.33
2022-09-10T19:32:26.928Z,21.00
2022-09-10T19:34:55.600Z,21.13
2022-09-10T19:37:23.006Z,21.10
2022-09-10T19:39:50.513Z,21.06
2022-09-10T19:42:18.094Z,21.07
2022-09-10T19:44:46.309Z,21.14
2022-09-10T19:47:13.862Z,21.11
2022-09-10T19:49:41.496Z,21.19
2022-09-10T19:52:11.039Z,21.01
2022-09-10T19:54:38.800Z,21.05
2022-09-10T19:57:06.411Z,20.95
2022-09-10T19:59:33.596Z,20.92
2022-09-10T20:02:01.057Z,20.73
2022-09-10T20:04:29.458Z,20.74
2022-09-10T20:06:56.803Z,20.71
2022-09-10T20:09:24.551Z,20.43
2022-09-10T20:11:52.379Z,20.66
2022-09-10T20:14:20.405Z,20.74
2022-09-10T20:16:47.662Z,20.74
2022-09-10T20:19:21.584Z,20.85
2022-09-10T20:21:49.012Z,20.62
2022-09-10T20:24:16.716Z,20.52
2022-09-10T20:26:45.417Z,20.10
2022-09-10T20:29:13.793Z,20.36
2022-09-10T20:31:41.774Z,20.27
2022-09-10T20:34:15.601Z,20.28
2022-09-10T20:36:43.282Z,20.26
2022-09-10T20:39:14.369Z,20.14
2022-09-10T20:41:42.304Z,19.93
2022-09-10T20:44:10.471Z,20.09
2022-09-10T20:46:38.242Z,20.26
2022-09-10T20:49:05.514Z,19.90
2022-09-10T20:51:38.798Z,20.01
2022-09-10T20:54:07.287Z,19.90
2022-09-10T20:56:36.131Z,20.02
2022-09-10T20:59:03.593Z,19.87
2022-09-10T21:01:31.963Z,20.05
2022-09-10T21:04:01.281Z,20.08
2022-09-10T21:06:29.325Z,19.95
2022-09-10T21:08:56.676Z,20.04
2022-09-10T21:11:28.570Z,20.33
2022-09-10T21:13:57.036Z,20.08
2022-09-10T21:16:28.341Z,20.05
2022-09-10T21:18:56.650Z,19.94
2022-09-10T21:21:25.787Z,19.95
2022-09-10T21:23:54.266Z,20.03
2022-09-10T21:26:22.227Z,19.95
2022-09-10T21:28:52.831Z,19.88
2022-09-10T21:31:20.370Z,19.97
2022-09-10T21:33:47.607Z,20.03
2022-09-10T21:36:16.150Z,19.88
2022-09-10T21:38:48.268Z,19.66
2022-09-10T21:41:16.818Z,19.72
2022-09-10T21:43:44.863Z,19.49
2022-09-10T21:46:13.587Z,19.54
2022-09-10T21:48:42.329Z,19.60
2022-09-10T21:51:14.513Z,19.71
2022-09-10T21:53:42.334Z,19.66
2022-09-10T21:56:13.495Z,19.66
2022-09-10T21:58:40.846Z,19.49
2022-09-10T22:01:09.144Z,19.28
2022-09-10T22:03:39.999Z,18.72
2022-09-10T22:06:12.366Z,19.06
2022-09-10T22:08:41.224Z,19.23
2022-09-10T22:11:09.860Z,19.20
2022-09-10T22:13:37.988Z,19.32
2022-09-10T22:16:06.121Z,19.46
2022-09-10T22:18:41.971Z,19.39
2022-09-10T22:21:10.219Z,19.42
2022-09-10T22:23:38.230Z,19.26
2022-09-10T22:26:06.563Z,19.26
2022-09-10T22:28:35.048Z,19.40
2022-09-10T22:31:07.178Z,19.38
2022-09-10T22:33:35.155Z,19.18
2022-09-10T22:36:31.005Z,19.12
2022-09-10T22:38:59.640Z,18.97
2022-09-10T22:41:27.214Z,19.12
2022-09-10T22:43:54.595Z,18.96
2022-09-10T22:46:24.142Z,18.89
2022-09-10T22:48:51.409Z,19.13
2022-09-10T22:51:20.123Z,19.04
2022-09-10T22:53:48.164Z,19.07
2022-09-10T22:56:20.671Z,19.07
2022-09-10T22:58:51.606Z,18.98
2022-09-10T23:01:19.848Z,18.83
2022-09-10T23:03:49.331Z,18.80
2022-09-10T23:06:18.188Z,18.89
2022-09-10T23:08:46.347Z,18.59
2022-09-10T23:11:15.265Z,18.83
2022-09-10T23:13:43.517Z,18.56
2022-09-10T23:16:15.053Z,18.63
2022-09-10T23:18:42.905Z,18.65
2022-09-10T23:21:10.214Z,18.47
2022-09-10T23:23:37.533Z,18.55
2022-09-10T23:26:06.303Z,18.53
2022-09-10T23:28:33.524Z,18.54
2022-09-10T23:31:06.782Z,18.45
2022-09-10T23:33:34.514Z,18.26
2022-09-10T23:36:03.223Z,18.34
2022-09-10T23:38:31.548Z,18.34
2022-09-10T23:41:00.169Z,18.27
2022-09-10T23:43:27.673Z,18.20
2022-09-10T23:45:55.289Z,17.77
2022-09-10T23:48:24.567Z,17.67
2022-09-10T23:50:52.091Z,17.94
2022-09-10T23:53:19.650Z,17.79
2022-09-10T23:55:47.389Z,17.71
2022-09-10T23:58:15.465Z,17.87
